Time;durP1;ratioP1;P1;durP2;ratioP2;P2;SDS_P1;SDS_P2;PMS_P1;PMS_P2;Temp;Humidity;BMP_temperature;BMP_pressure;BME280_temperature;BME280_humidity;BME280_pressure;Samples;Min_cycle;Max_cycle;Signal;HPM_P1;HPM_P2
2023/07/05 00:00:29;;;;;;;13.05;4.63;;;;;;;22.26;57.81;99416.50;4859201;29;20050;-86
2023/07/05 00:02:56;;;;;;;8.10;4.15;;;;;;;22.27;57.46;99415.47;4877939;29;20147;-85
2023/07/05 00:05:23;;;;;;;7.57;4.50;;;;;;;22.29;57.60;99416.09;4888007;29;20048;-87
2023/07/05 00:07:50;;;;;;;8.63;4.32;;;;;;;22.29;57.39;99414.22;4876192;29;20042;-86
2023/07/05 00:10:17;;;;;;;13.75;4.70;;;;;;;22.29;57.64;99411.50;4860253;29;20051;-86
2023/07/05 00:12:43;;;;;;;11.88;5.55;;;;;;;22.32;57.54;99404.81;4886164;29;20134;-86
2023/07/05 00:15:10;;;;;;;11.02;5.38;;;;;;;22.30;57.29;99396.91;4861690;29;20096;-86
2023/07/05 00:17:37;;;;;;;8.05;4.38;;;;;;;22.27;57.44;99401.94;4889639;29;20481;-87
2023/07/05 00:20:06;;;;;;;12.80;5.00;;;;;;;22.28;57.63;99390.91;4878040;29;20045;-87
2023/07/05 00:22:32;;;;;;;8.55;4.28;;;;;;;22.29;57.31;99391.75;4877977;29;20097;-87
2023/07/05 00:25:01;;;;;;;10.90;5.65;;;;;;;22.26;57.73;99389.47;4873682;29;20040;-86
2023/07/05 00:27:28;;;;;;;8.18;4.70;;;;;;;22.24;57.93;99376.19;4871851;29;20401;-86
2023/07/05 00:29:55;;;;;;;8.80;4.95;;;;;;;22.27;58.44;99369.50;4895836;29;20047;-86
2023/07/05 00:32:22;;;;;;;8.75;4.35;;;;;;;22.27;58.02;99367.63;4847742;29;20045;-87
2023/07/05 00:34:49;;;;;;;8.23;4.28;;;;;;;22.27;57.82;99362.22;4888420;29;20048;-87
2023/07/05 00:37:16;;;;;;;9.85;5.00;;;;;;;22.22;58.06;99350.41;4895654;29;20048;-86
2023/07/05 00:39:42;;;;;;;7.93;4.55;;;;;;;22.21;58.29;99346.88;4860665;29;20056;-86
2023/07/05 00:42:09;;;;;;;11.45;5.05;;;;;;;22.24;58.05;99356.44;4877318;29;20113;-86
2023/07/05 00:44:36;;;;;;;10.63;4.88;;;;;;;22.22;57.90;99337.72;4897678;29;20536;-86
2023/07/05 00:47:17;;;;;;;10.00;4.95;;;;;;;22.18;58.45;99338.34;4878800;29;20072;-86
2023/07/05 00:49:44;;;;;;;15.52;4.78;;;;;;;22.24;57.97;99329.38;4895328;29;20040;-87
2023/07/05 00:52:13;;;;;;;9.20;4.80;;;;;;;22.22;57.46;99321.47;4891779;29;20052;-87
2023/07/05 00:54:45;;;;;;;9.00;4.80;;;;;;;22.23;57.47;99322.31;4878603;29;20063;-87
2023/07/05 00:57:15;;;;;;;11.70;5.18;;;;;;;22.23;57.58;99322.31;4881141;29;20048;-86
2023/07/05 00:59:47;;;;;;;8.10;4.80;;;;;;;22.24;57.37;99316.69;4892125;29;20108;-86
2023/07/05 01:02:14;;;;;;;13.52;5.13;;;;;;;22.28;57.12;99320.56;4892066;29;20491;-87
2023/07/05 01:04:41;;;;;;;10.20;4.38;;;;;;;22.28;56.63;99317.03;4898847;29;20413;-86
2023/07/05 01:07:07;;;;;;;10.40;4.88;;;;;;;22.32;56.55;99318.25;4865235;29;20498;-86
2023/07/05 01:09:34;;;;;;;10.75;5.40;;;;;;;22.30;55.84;99312.25;4860374;29;20108;-86
2023/07/05 01:18:59;;;;;;;20.67;6.28;;;;;;;22.32;54.68;99456.22;4792728;28;20110;-85
2023/07/05 01:21:52;;;;;;;27.88;5.45;;;;;;;22.28;59.62;99444.16;4857699;29;20594;-84
2023/07/05 01:24:44;;;;;;;20.35;5.30;;;;;;;22.23;61.67;99452.13;4883212;29;20472;-84
2023/07/05 01:27:36;;;;;;;16.23;5.30;;;;;;;22.09;64.45;99438.69;4867723;29;20062;-84
2023/07/05 01:30:12;;;;;;;23.73;6.43;;;;;;;22.09;64.33;99432.44;4883633;29;20051;-84
2023/07/05 01:32:45;;;;;;;28.48;6.50;;;;;;;22.02;66.43;99420.84;4889725;29;20167;-85
2023/07/05 01:35:19;;;;;;;24.55;5.70;;;;;;;21.97;66.44;99424.22;4902953;29;20146;-86
2023/07/05 01:37:46;;;;;;;14.05;5.15;;;;;;;22.01;64.93;99424.63;4896773;29;20576;-84
2023/07/05 01:40:22;;;;;;;13.95;5.35;;;;;;;21.94;68.32;99442.75;4889012;29;20063;-85
2023/07/05 01:42:54;;;;;;;17.23;6.32;;;;;;;22.00;66.25;99452.69;4894825;29;20135;-83
2023/07/05 01:45:25;;;;;;;16.23;6.35;;;;;;;21.96;67.03;99440.69;4885155;29;20044;-83
2023/07/05 01:47:57;;;;;;;21.20;6.13;;;;;;;21.96;67.59;99448.78;4893763;29;20524;-84
2023/07/05 01:50:28;;;;;;;14.98;5.40;;;;;;;21.94;66.77;99459.81;4888469;29;20105;-84
2023/07/05 01:53:11;;;;;;;24.00;5.93;;;;;;;21.83;68.89;99457.78;4890152;29;20112;-84
2023/07/05 01:55:43;;;;;;;15.10;5.45;;;;;;;21.85;67.13;99443.03;4901271;29;20794;-85
2023/07/05 01:58:11;;;;;;;;;;;;;;;21.64;69.21;99437.97;4890591;29;20155;-84
2023/07/05 02:00:40;;;;;;;18.48;6.25;;;;;;;21.84;67.00;99424.31;4898340;29;19926;-85
2023/07/05 02:03:09;;;;;;;22.05;7.03;;;;;;;21.83;68.15;99419.94;4886565;29;20048;-84
2023/07/05 02:05:37;;;;;;;19.58;5.63;;;;;;;21.82;67.79;99411.00;4894592;29;20068;-86
2023/07/05 02:08:04;;;;;;;13.50;6.07;;;;;;;21.87;67.85;99399.56;4884476;29;20508;-84
2023/07/05 02:10:32;;;;;;;22.40;5.93;;;;;;;21.84;68.23;99417.03;4876158;29;20337;-85
2023/07/05 02:13:02;;;;;;;21.75;5.72;;;;;;;21.83;67.95;99418.09;4895077;29;20049;-84
2023/07/05 02:15:29;;;;;;;19.55;5.57;;;;;;;21.85;68.44;99426.81;4903438;29;20076;-84
2023/07/05 02:17:56;;;;;;;17.55;5.30;;;;;;;21.86;68.74;99425.75;4901796;29;20146;-85
2023/07/05 02:20:24;;;;;;;16.50;5.50;;;;;;;21.84;68.58;99427.03;4864255;29;20453;-84
2023/07/05 02:23:11;;;;;;;12.65;4.80;;;;;;;21.83;69.78;99425.34;4812442;23;20410;-84
2023/07/05 02:26:05;;;;;;;15.38;4.75;;;;;;;21.78;69.63;99426.03;4830713;29;20549;-85
2023/07/05 02:29:08;;;;;;;16.52;4.25;;;;;;;21.75;69.18;99417.53;4788137;29;20126;-86
2023/07/05 02:31:41;;;;;;;;;;;;;;;21.52;71.20;99429.72;4777626;29;20053;-84
2023/07/05 02:38:41;;;;;;;14.82;4.80;;;;;;;21.62;70.73;99403.03;4751004;29;20045;-85
2023/07/05 02:41:22;;;;;;;16.13;5.15;;;;;;;21.65;69.83;99399.94;4791296;29;20045;-84
2023/07/05 02:43:50;;;;;;;15.95;4.30;;;;;;;21.70;70.32;99401.94;4824913;29;20662;-84
2023/07/05 02:46:20;;;;;;;9.27;3.80;;;;;;;21.71;70.32;99403.63;4822537;29;20564;-84
2023/07/05 02:48:49;;;;;;;9.88;3.63;;;;;;;21.71;70.17;99403.63;4835297;29;20156;-84
2023/07/05 02:51:17;;;;;;;11.65;4.13;;;;;;;21.72;70.28;99405.28;4858965;29;20055;-84
2023/07/05 02:53:44;;;;;;;10.52;4.00;;;;;;;21.70;70.44;99393.84;4853403;29;20057;-84
2023/07/05 02:56:11;;;;;;;12.05;4.55;;;;;;;21.73;70.66;99390.72;4842174;29;20049;-84
2023/07/05 02:58:37;;;;;;;10.65;4.00;;;;;;;21.74;70.59;99383.44;4881339;29;20585;-84
2023/07/05 03:01:05;;;;;;;11.77;4.07;;;;;;;21.72;70.69;99391.75;4859116;29;20048;-84
2023/07/05 03:03:32;;;;;;;14.02;3.42;;;;;;;21.71;70.99;99383.88;4848485;29;20052;-84
2023/07/05 03:06:00;;;;;;;10.25;3.38;;;;;;;21.74;70.81;99380.75;4863673;29;20052;-84
2023/07/05 03:08:28;;;;;;;8.25;3.35;;;;;;;21.68;71.10;99375.16;4871501;29;20084;-84
2023/07/05 03:10:55;;;;;;;9.93;3.72;;;;;;;21.71;70.89;99378.47;4876747;29;20048;-84
2023/07/05 03:13:29;;;;;;;19.25;3.95;;;;;;;21.66;71.39;99385.38;4867656;29;20056;-83
2023/07/05 03:15:57;;;;;;;11.68;3.25;;;;;;;21.64;71.04;99379.34;4869300;29;20178;-84
2023/07/05 03:18:24;;;;;;;10.63;3.33;;;;;;;21.64;71.14;99368.53;4875765;29;20057;-85
2023/07/05 03:20:52;;;;;;;9.90;3.63;;;;;;;21.63;71.21;99361.50;4848939;29;20616;-85
2023/07/05 03:23:20;;;;;;;14.45;3.92;;;;;;;21.64;71.30;99365.00;4818546;29;20076;-85
2023/07/05 03:25:58;;;;;;;10.63;3.45;;;;;;;21.57;72.78;99373.16;4832623;29;20057;-85
2023/07/05 03:28:29;;;;;;;7.57;3.10;;;;;;;21.61;71.71;99368.97;4832008;29;20051;-85
2023/07/05 03:31:01;;;;;;;20.88;3.47;;;;;;;21.56;72.71;99368.00;4819645;29;20056;-85
2023/07/05 03:33:30;;;;;;;14.82;3.70;;;;;;;21.61;71.72;99368.16;4860756;29;20052;-85
2023/07/05 03:36:03;;;;;;;15.30;3.72;;;;;;;21.57;71.63;99375.84;4851994;29;20056;-85
2023/07/05 03:38:31;;;;;;;15.23;4.15;;;;;;;21.56;71.39;99378.78;4832416;29;20108;-85
2023/07/05 03:41:07;;;;;;;7.00;3.40;;;;;;;21.55;71.07;99377.97;4862173;29;20055;-85
2023/07/05 03:43:35;;;;;;;12.85;3.65;;;;;;;21.54;71.24;99387.09;4876511;29;20057;-84
2023/07/05 03:46:04;;;;;;;8.45;3.00;;;;;;;21.55;71.48;99386.06;4860672;29;20421;-85
2023/07/05 03:48:34;;;;;;;9.65;3.40;;;;;;;21.52;71.39;99389.19;4832551;29;20053;-85
2023/07/05 03:51:05;;;;;;;12.35;3.10;;;;;;;21.52;71.18;99397.28;4851521;29;20535;-84
2023/07/05 03:53:33;;;;;;;9.57;2.88;;;;;;;21.51;71.35;99402.94;4831588;29;20056;-85
2023/07/05 03:56:01;;;;;;;10.68;3.50;;;;;;;21.52;71.35;99402.69;4865148;29;20614;-84
2023/07/05 03:58:28;;;;;;;10.85;3.20;;;;;;;21.49;71.53;99418.53;4844675;29;20060;-85
2023/07/05 04:01:19;;;;;;;6.50;2.92;;;;;;;21.38;72.36;99403.81;4833345;29;20076;-85
2023/07/05 04:03:49;;;;;;;8.70;3.85;;;;;;;21.48;71.22;99406.06;4854966;29;20041;-85
2023/07/05 04:06:17;;;;;;;11.15;3.40;;;;;;;21.50;71.20;99414.78;4882619;29;20116;-84
2023/07/05 04:08:43;;;;;;;8.68;3.45;;;;;;;21.48;70.85;99408.78;4893532;29;20084;-85
2023/07/05 04:11:10;;;;;;;13.25;3.10;;;;;;;21.45;71.08;99402.75;4876542;29;20061;-84
2023/07/05 04:13:37;;;;;;;11.93;4.22;;;;;;;21.42;71.53;99408.59;4839193;29;20140;-85
2023/07/05 04:16:12;;;;;;;7.35;3.75;;;;;;;21.46;70.97;99408.97;4865583;29;20123;-85
2023/07/05 04:18:39;;;;;;;7.38;3.15;;;;;;;21.44;70.96;99405.66;4851637;29;20569;-85
2023/07/05 04:21:07;;;;;;;6.72;3.08;;;;;;;21.43;70.94;99409.44;4845450;29;20222;-85
2023/07/05 04:23:35;;;;;;;8.02;3.00;;;;;;;21.42;70.64;99408.59;4848559;29;20059;-84
2023/07/05 04:26:06;;;;;;;8.40;3.00;;;;;;;21.43;70.68;99404.03;4845733;29;20745;-85
2023/07/05 04:28:34;;;;;;;9.27;3.10;;;;;;;21.41;70.75;99404.22;4874756;29;20049;-85
2023/07/05 04:31:02;;;;;;;11.93;2.92;;;;;;;21.42;70.74;99397.78;4851265;29;20546;-85
2023/07/05 04:33:29;;;;;;;9.65;4.10;;;;;;;21.40;70.91;99407.97;4850049;29;20054;-84
2023/07/05 04:35:57;;;;;;;8.73;3.38;;;;;;;21.41;70.76;99398.00;4831888;29;20053;-85
2023/07/05 04:38:25;;;;;;;7.80;3.97;;;;;;;21.39;70.95;99397.38;4838547;29;20414;-86
2023/07/05 04:40:53;;;;;;;9.60;2.80;;;;;;;21.37;71.17;99397.59;4865803;29;20049;-85
2023/07/05 04:43:20;;;;;;;10.95;3.20;;;;;;;21.35;71.26;99393.44;4843596;29;20112;-84
2023/07/05 04:45:55;;;;;;;16.65;3.72;;;;;;;21.33;72.01;99400.94;4876522;29;20458;-84
2023/07/05 04:48:32;;;;;;;12.30;3.70;;;;;;;21.31;71.96;99394.91;4860222;29;20044;-84
2023/07/05 04:50:59;;;;;;;16.23;4.13;;;;;;;21.37;71.33;99396.75;4832172;29;20081;-84
2023/07/05 04:53:28;;;;;;;14.50;3.80;;;;;;;21.37;71.65;99388.63;4850268;29;20049;-84
2023/07/05 04:56:01;;;;;;;9.70;3.63;;;;;;;21.41;71.39;99390.72;4851467;29;20048;-84
2023/07/05 04:58:28;;;;;;;10.23;3.70;;;;;;;21.43;71.39;99380.53;4858693;29;20052;-84
2023/07/05 05:01:03;;;;;;;14.10;3.47;;;;;;;21.52;72.30;99386.50;4850619;29;20044;-85
2023/07/05 05:03:31;;;;;;;13.07;3.70;;;;;;;21.59;71.57;99386.47;4861845;29;20048;-84
2023/07/05 05:05:59;;;;;;;9.82;3.80;;;;;;;21.68;71.35;99377.88;4855305;29;20573;-85
2023/07/05 05:08:26;;;;;;;11.38;3.40;;;;;;;21.79;71.53;99370.91;4843792;29;20068;-85
2023/07/05 05:10:56;;;;;;;8.00;4.00;;;;;;;21.87;71.92;99372.53;4859213;29;20251;-85
2023/07/05 05:13:24;;;;;;;14.30;3.70;;;;;;;21.91;71.87;99381.03;4850497;29;20075;-85
2023/07/05 05:15:55;;;;;;;12.48;4.22;;;;;;;21.86;71.45;99366.28;4851221;29;20059;-85
2023/07/05 05:18:24;;;;;;;12.23;4.20;;;;;;;21.84;71.78;99375.66;4839698;29;20057;-85
2023/07/05 05:20:51;;;;;;;9.77;4.55;;;;;;;21.84;71.49;99394.59;4841949;29;20063;-85
2023/07/05 05:23:21;;;;;;;12.48;4.30;;;;;;;21.82;71.59;99396.69;4839969;29;20195;-85
2023/07/05 05:25:53;;;;;;;11.93;4.22;;;;;;;21.77;71.42;99410.03;4832604;29;20045;-84
2023/07/05 05:28:20;;;;;;;11.52;4.57;;;;;;;21.75;71.42;99426.44;4851311;29;20124;-84
2023/07/05 05:30:50;;;;;;;14.15;4.28;;;;;;;21.71;72.02;99433.34;4850522;29;20128;-84
2023/07/05 05:33:19;;;;;;;11.23;4.40;;;;;;;21.68;71.77;99433.78;4847716;29;20045;-84
2023/07/05 05:35:50;;;;;;;10.07;3.95;;;;;;;21.64;73.25;99448.78;4851009;29;20856;-85
2023/07/05 05:38:20;;;;;;;7.38;4.20;;;;;;;21.58;72.88;99433.44;4840006;29;20059;-85
2023/07/05 05:40:50;;;;;;;17.67;4.90;;;;;;;21.60;72.98;99428.63;4853412;29;20045;-85
2023/07/05 05:43:19;;;;;;;8.27;3.95;;;;;;;21.56;72.00;99430.94;4803790;29;20052;-85
2023/07/05 05:45:46;;;;;;;15.60;5.60;;;;;;;21.53;72.50;99433.28;4826314;29;20050;-86
2023/07/05 05:48:14;;;;;;;12.95;4.00;;;;;;;21.56;72.85;99454.44;4831514;29;20468;-86
2023/07/05 05:50:41;;;;;;;11.38;3.47;;;;;;;21.54;72.79;99459.22;4877611;29;20053;-84
2023/07/05 05:53:10;;;;;;;10.40;4.50;;;;;;;21.51;72.72;99443.47;4849309;29;20072;-85
2023/07/05 05:55:39;;;;;;;12.30;4.57;;;;;;;21.51;73.06;99451.56;4861746;29;20139;-84
2023/07/05 05:58:06;;;;;;;18.27;3.97;;;;;;;21.49;72.91;99453.66;4882289;29;20052;-84
2023/07/05 06:00:33;;;;;;;8.40;3.75;;;;;;;21.46;73.08;99463.00;4854133;29;20056;-85
2023/07/05 06:03:01;;;;;;;11.68;4.10;;;;;;;21.46;73.11;99471.94;4849614;29;20531;-85
2023/07/05 06:05:29;;;;;;;12.25;4.22;;;;;;;21.45;73.08;99461.38;4828256;29;20053;-85
2023/07/05 06:07:56;;;;;;;11.68;4.07;;;;;;;21.45;72.34;99469.47;4820806;29;21117;-84
2023/07/05 06:10:25;;;;;;;17.20;4.10;;;;;;;21.42;72.29;99465.31;4857635;29;20049;-85
2023/07/05 06:12:53;;;;;;;11.40;3.83;;;;;;;21.42;72.40;99470.72;4861251;29;20060;-84
2023/07/05 06:15:20;;;;;;;12.35;3.70;;;;;;;21.42;72.76;99457.22;4852398;29;20076;-85
2023/07/05 06:17:47;;;;;;;10.23;3.70;;;;;;;21.46;72.33;99465.72;4832504;29;20098;-84
2023/07/05 06:20:39;;;;;;;9.10;3.13;;;;;;;21.50;72.55;99472.34;4873617;29;20044;-85
2023/07/05 06:23:07;;;;;;;9.70;3.95;;;;;;;21.54;72.82;99476.25;4863542;29;20055;-85
2023/07/05 06:25:34;;;;;;;8.68;3.55;;;;;;;21.64;72.79;99467.69;4861868;29;20049;-84
2023/07/05 06:28:03;;;;;;;9.15;3.65;;;;;;;21.67;72.93;99472.66;4840998;29;20060;-85
2023/07/05 06:31:09;;;;;;;9.10;3.25;;;;;;;21.60;73.98;99475.41;4860052;29;20197;-86
2023/07/05 06:33:38;;;;;;;9.05;3.80;;;;;;;21.64;73.30;99487.44;4867350;29;20600;-85
2023/07/05 06:36:33;;;;;;;8.75;3.35;;;;;;;21.53;74.93;99493.53;4857294;29;20044;-85
2023/07/05 06:39:04;;;;;;;15.57;4.25;;;;;;;21.59;73.64;99497.22;4811620;29;20113;-85
2023/07/05 06:41:31;;;;;;;6.40;3.38;;;;;;;21.62;72.01;99513.81;4803113;29;20055;-85
2023/07/05 06:43:58;;;;;;;8.00;3.55;;;;;;;21.55;71.71;99515.75;4864356;29;20671;-85
2023/07/05 06:46:25;;;;;;;10.32;4.35;;;;;;;21.53;72.40;99517.03;4864659;29;20057;-85
2023/07/05 06:48:55;;;;;;;20.83;4.65;;;;;;;21.56;72.31;99538.19;4880387;29;20513;-84
2023/07/05 06:51:24;;;;;;;17.02;5.00;;;;;;;21.49;72.73;99534.69;4882203;29;20211;-86
2023/07/05 06:53:51;;;;;;;13.43;4.35;;;;;;;21.46;72.47;99538.66;4881295;29;20076;-85
2023/07/05 06:56:19;;;;;;;10.30;4.55;;;;;;;21.51;72.98;99538.84;4853632;29;20048;-85
2023/07/05 06:58:46;;;;;;;8.55;4.32;;;;;;;21.54;73.18;99534.88;4836264;29;20056;-83
2023/07/05 07:01:16;;;;;;;9.52;3.40;;;;;;;21.58;72.38;99533.41;4841778;29;20075;-85
2023/07/05 07:03:46;;;;;;;;;;;;;;;21.43;74.35;99533.69;4805377;29;20114;-86
2023/07/05 07:06:32;;;;;;;12.18;3.90;;;;;;;21.58;72.81;99542.34;4799633;29;19940;-84
2023/07/05 07:09:22;;;;;;;11.65;3.30;;;;;;;21.70;71.71;99541.66;4838436;29;20047;-85
2023/07/05 07:12:14;;;;;;;11.73;3.83;;;;;;;21.63;69.74;99550.63;4790403;29;20139;-86
2023/07/05 07:14:47;;;;;;;13.57;4.30;;;;;;;21.75;69.32;99558.88;4836538;28;20056;-86
2023/07/05 07:17:41;;;;;;;12.13;4.03;;;;;;;21.65;67.95;99570.16;4805021;29;20064;-86
2023/07/05 07:20:26;;;;;;;11.70;3.67;;;;;;;21.73;69.12;99563.69;4843975;29;20093;-85
2023/07/05 07:22:59;;;;;;;15.95;4.55;;;;;;;21.75;68.56;99572.38;4831113;29;20053;-85
2023/07/05 07:25:27;;;;;;;15.05;5.93;;;;;;;21.75;67.75;99579.66;4837282;29;20857;-84
2023/07/05 07:27:54;;;;;;;11.63;4.85;;;;;;;21.70;66.98;99583.00;4842767;29;20513;-85
2023/07/05 07:30:26;;;;;;;10.80;4.13;;;;;;;21.71;65.91;99597.38;4836614;29;20052;-86
2023/07/05 07:32:53;;;;;;;16.92;5.43;;;;;;;21.68;65.59;99599.47;4818044;29;20471;-86
2023/07/05 07:35:20;;;;;;;21.25;5.70;;;;;;;21.71;64.98;99600.91;4827058;29;20052;-85
2023/07/05 07:37:47;;;;;;;15.88;5.05;;;;;;;21.70;65.72;99601.94;4830188;29;20089;-84
2023/07/05 07:40:14;;;;;;;15.25;5.47;;;;;;;21.72;65.33;99599.84;4857983;29;20054;-85
2023/07/05 07:42:41;;;;;;;15.27;5.60;;;;;;;21.70;65.08;99611.91;4818729;29;20060;-84
2023/07/05 07:45:10;;;;;;;16.23;5.60;;;;;;;21.69;65.50;99597.59;4864557;29;20595;-84
2023/07/05 07:47:39;;;;;;;16.13;6.00;;;;;;;21.74;64.75;99605.88;4813155;29;20100;-85
2023/07/05 07:50:09;;;;;;;16.25;5.25;;;;;;;21.67;64.75;99607.75;4822626;29;20064;-85
2023/07/05 07:52:35;;;;;;;17.70;5.90;;;;;;;21.70;64.87;99603.81;4841057;29;20128;-85
2023/07/05 07:55:04;;;;;;;19.17;6.97;;;;;;;21.73;63.96;99603.38;4849188;29;20092;-85
2023/07/05 07:57:31;;;;;;;22.13;6.50;;;;;;;21.76;64.00;99611.06;4864585;29;20720;-85
2023/07/05 07:59:58;;;;;;;22.60;6.68;;;;;;;21.78;63.16;99611.66;4834318;29;20134;-84
2023/07/05 08:02:25;;;;;;;18.77;6.47;;;;;;;21.80;62.83;99604.19;4845097;29;20049;-85
2023/07/05 08:04:52;;;;;;;19.63;6.72;;;;;;;21.68;60.47;99609.44;4843114;29;20087;-83
2023/07/05 08:07:21;;;;;;;19.80;7.65;;;;;;;21.71;60.84;99619.81;4828988;29;20052;-85
2023/07/05 08:09:50;;;;;;;19.92;7.55;;;;;;;21.68;59.77;99620.25;4878696;29;20048;-84
2023/07/05 08:12:17;;;;;;;20.13;7.40;;;;;;;21.66;59.77;99619.63;4860288;29;20059;-84
2023/07/05 08:14:44;;;;;;;18.75;8.00;;;;;;;21.66;59.61;99612.34;4876695;29;20061;-84
2023/07/05 08:17:10;;;;;;;31.45;8.25;;;;;;;21.72;59.16;99612.53;4875029;29;20135;-85
2023/07/05 08:19:38;;;;;;;25.60;7.68;;;;;;;21.76;58.62;99611.91;4881993;29;20041;-85
2023/07/05 08:22:06;;;;;;;19.40;7.38;;;;;;;21.74;58.57;99597.75;4848555;29;20147;-84
2023/07/05 08:24:33;;;;;;;22.27;8.10;;;;;;;21.79;57.77;99616.88;4863554;29;20068;-84
2023/07/05 08:27:00;;;;;;;24.60;7.50;;;;;;;21.81;57.19;99614.78;4881305;29;20422;-84
2023/07/05 08:29:27;;;;;;;19.65;7.65;;;;;;;21.77;57.00;99616.25;4878435;29;20060;-84
2023/07/05 08:31:54;;;;;;;20.15;7.53;;;;;;;21.81;57.20;99613.97;4879934;29;20037;-85
2023/07/05 08:34:20;;;;;;;18.00;6.90;;;;;;;21.76;56.83;99619.19;4875340;29;20045;-84
2023/07/05 08:36:47;;;;;;;22.95;7.55;;;;;;;21.72;57.12;99612.53;4875280;29;20045;-84
2023/07/05 08:39:16;;;;;;;17.55;7.13;;;;;;;21.72;56.59;99609.84;4865685;29;20045;-85
2023/07/05 08:41:47;;;;;;;19.27;7.35;;;;;;;21.72;56.35;99617.94;4855775;29;20651;-84
2023/07/05 08:44:39;;;;;;;18.27;7.63;;;;;;;21.69;56.31;99621.91;4894211;29;20044;-84
2023/07/05 08:47:08;;;;;;;18.48;6.70;;;;;;;21.72;55.93;99620.66;4863483;29;20163;-84
2023/07/05 08:49:39;;;;;;;17.30;7.57;;;;;;;21.77;57.10;99618.94;4877458;29;20568;-83
2023/07/05 08:52:22;;;;;;;22.08;7.93;;;;;;;21.74;53.37;99622.09;4875830;29;20053;-83
2023/07/05 08:54:55;;;;;;;17.33;6.45;;;;;;;21.77;55.74;99626.25;4846019;29;20049;-84
2023/07/05 08:57:43;;;;;;;22.98;6.80;;;;;;;21.79;54.43;99649.31;4863813;29;20056;-84
2023/07/05 09:00:16;;;;;;;17.00;7.30;;;;;;;21.85;54.72;99645.75;4859516;29;20056;-84
2023/07/05 09:02:43;;;;;;;22.92;7.05;;;;;;;21.88;55.19;99637.22;4861324;29;20052;-84
2023/07/05 09:05:22;;;;;;;15.68;5.93;;;;;;;21.85;55.01;99653.03;4867077;29;20052;-83
2023/07/05 09:08:14;;;;;;;16.65;6.65;;;;;;;21.91;54.11;99652.19;4879298;29;20056;-84
2023/07/05 09:10:54;;;;;;;15.50;6.25;;;;;;;21.91;51.64;99646.78;4837922;29;20081;-85
2023/07/05 09:13:34;;;;;;;16.73;5.43;;;;;;;21.94;51.06;99662.56;4819741;29;20049;-84
2023/07/05 09:16:39;;;;;;;15.98;6.40;;;;;;;21.87;50.30;99669.88;4877770;29;20052;-84
2023/07/05 09:19:19;;;;;;;16.83;6.75;;;;;;;21.92;49.80;99677.34;4847307;29;22219;-83
2023/07/05 09:22:01;;;;;;;15.80;6.53;;;;;;;21.92;50.11;99671.94;4855470;29;20128;-83
2023/07/05 09:24:39;;;;;;;12.48;5.53;;;;;;;21.91;51.00;99675.69;4873891;29;20045;-83
2023/07/05 09:27:15;;;;;;;14.70;5.47;;;;;;;21.98;51.60;99668.34;4883850;29;20053;-84
2023/07/05 09:29:47;;;;;;;15.10;6.18;;;;;;;22.04;51.37;99665.63;4881506;29;20063;-83
2023/07/05 09:32:17;;;;;;;13.90;5.68;;;;;;;22.10;50.28;99682.88;4876562;29;20151;-85
2023/07/05 09:34:55;;;;;;;14.18;5.35;;;;;;;22.07;49.28;99683.31;4884320;29;20052;-84
2023/07/05 09:37:26;;;;;;;16.77;5.93;;;;;;;22.11;49.52;99663.75;4877156;29;20061;-84
2023/07/05 09:40:05;;;;;;;13.52;5.53;;;;;;;22.06;48.07;99678.97;4866459;29;20049;-83
2023/07/05 09:42:36;;;;;;;12.95;4.93;;;;;;;22.09;48.96;99689.34;4882416;29;20132;-83
2023/07/05 09:45:03;;;;;;;14.10;5.00;;;;;;;22.09;49.24;99692.03;4861231;29;20759;-84
2023/07/05 09:47:30;;;;;;;12.35;4.63;;;;;;;22.05;48.32;99693.50;4848807;29;20044;-85
2023/07/05 09:49:59;;;;;;;11.80;5.03;;;;;;;22.05;48.59;99688.91;4808350;29;20045;-83
2023/07/05 09:52:26;;;;;;;9.18;4.82;;;;;;;22.10;48.63;99685.56;4866998;29;20056;-84
2023/07/05 09:54:59;;;;;;;12.95;5.28;;;;;;;22.11;48.91;99681.84;4859685;29;20127;-84
2023/07/05 09:57:26;;;;;;;11.30;5.13;;;;;;;22.04;47.28;99673.75;4863290;29;20045;-84
2023/07/05 09:59:55;;;;;;;12.88;4.97;;;;;;;22.04;47.66;99691.84;4846498;29;20104;-84
2023/07/05 10:02:29;;;;;;;14.65;5.63;;;;;;;22.05;47.93;99704.31;4843308;29;20099;-83
2023/07/05 10:04:58;;;;;;;11.93;4.90;;;;;;;22.06;47.64;99697.88;4876295;29;20125;-84
2023/07/05 10:07:29;;;;;;;16.13;6.15;;;;;;;22.07;48.06;99688.72;4861454;29;20368;-84
2023/07/05 10:10:01;;;;;;;11.40;5.13;;;;;;;22.11;48.56;99698.91;4881682;29;20048;-83
2023/07/05 10:12:33;;;;;;;10.88;4.70;;;;;;;22.11;47.89;99690.78;4854942;29;20052;-84
2023/07/05 10:15:01;;;;;;;12.50;5.88;;;;;;;22.18;48.35;99700.72;4850179;29;20140;-84
2023/07/05 10:17:49;;;;;;;10.15;4.78;;;;;;;22.11;46.70;99722.41;4857847;29;20053;-83
2023/07/05 10:20:23;;;;;;;10.70;4.05;;;;;;;22.21;46.86;99716.56;4865500;29;20057;-84
2023/07/05 10:23:01;;;;;;;12.68;4.55;;;;;;;22.21;46.16;99725.53;4871368;29;20052;-83
2023/07/05 10:25:35;;;;;;;10.25;4.45;;;;;;;22.21;46.62;99705.72;4852002;29;20048;-84
2023/07/05 10:28:04;;;;;;;9.93;4.45;;;;;;;22.28;47.01;99722.78;4866402;29;20061;-84
2023/07/05 10:30:32;;;;;;;15.80;4.60;;;;;;;22.29;46.46;99724.44;4874919;29;20140;-84
2023/07/05 10:33:27;;;;;;;9.63;3.97;;;;;;;22.18;43.40;99733.19;4877967;29;20424;-84
2023/07/05 10:36:05;;;;;;;10.45;4.13;;;;;;;22.26;44.86;99723.00;4871307;29;20510;-86
2023/07/05 10:38:47;;;;;;;8.02;3.65;;;;;;;22.31;45.93;99736.72;4869698;29;20139;-83
2023/07/05 10:41:32;;;;;;;7.95;3.40;;;;;;;22.28;44.65;99736.28;4831853;29;20080;-84
2023/07/05 10:44:07;;;;;;;13.23;4.10;;;;;;;22.17;44.16;99735.06;4810505;29;20423;-84
2023/07/05 10:46:40;;;;;;;9.10;4.40;;;;;;;22.11;44.90;99741.34;4828925;23;20091;-84
2023/07/05 10:49:12;;;;;;;8.32;3.65;;;;;;;22.06;44.18;99749.25;4912503;28;20315;-84
2023/07/05 10:51:42;;;;;;;7.50;4.03;;;;;;;22.05;44.82;99740.28;4914575;28;20066;-85
2023/07/05 10:54:20;;;;;;;9.10;3.75;;;;;;;22.04;44.43;99754.88;4921592;28;20051;-84
2023/07/05 10:57:15;;;;;;;12.02;3.42;;;;;;;22.07;44.51;99737.38;4918215;28;20047;-84
2023/07/05 10:59:45;;;;;;;8.70;3.55;;;;;;;22.00;44.19;99744.69;4846596;28;20421;-85
2023/07/05 11:02:41;;;;;;;9.23;4.45;;;;;;;21.99;44.59;99756.56;4902552;28;20044;-84
2023/07/05 11:05:24;;;;;;;10.50;3.95;;;;;;;21.90;43.52;99750.53;4870547;28;20109;-84
2023/07/05 11:08:11;;;;;;;12.35;3.55;;;;;;;22.00;44.45;99748.22;4868532;29;20495;-84
2023/07/05 11:10:44;;;;;;;6.20;2.78;;;;;;;22.13;44.71;99728.41;4906487;29;20582;-86
2023/07/05 11:13:48;;;;;;;11.02;3.60;;;;;;;22.20;44.09;99742.78;4893142;29;20054;-84
2023/07/05 11:16:23;;;;;;;6.50;3.35;;;;;;;22.14;42.91;99740.09;4886006;28;20103;-84
2023/07/05 11:19:28;;;;;;;7.25;3.83;;;;;;;22.20;43.89;99747.38;4846495;28;20043;-83
2023/07/05 11:21:55;;;;;;;7.35;3.40;;;;;;;22.20;43.11;99737.38;4910110;28;20099;-84
2023/07/05 11:24:38;;;;;;;9.50;3.92;;;;;;;22.09;41.95;99746.13;4876198;29;20052;-84
2023/07/05 11:27:46;;;;;;;8.15;3.83;;;;;;;22.05;42.01;99739.47;4861673;29;20716;-85
2023/07/05 11:30:55;;;;;;;8.95;3.63;;;;;;;22.13;43.80;99746.53;4913474;28;20143;-84
2023/07/05 11:33:26;;;;;;;7.20;3.42;;;;;;;22.18;44.20;99731.31;4872610;29;20080;-84
2023/07/05 11:36:24;;;;;;;5.65;3.83;;;;;;;22.22;43.89;99729.06;4889534;28;20069;-84
2023/07/05 11:38:56;;;;;;;9.68;4.05;;;;;;;22.33;43.52;99731.06;4891048;28;20054;-84
2023/07/05 11:41:40;;;;;;;6.88;3.88;;;;;;;22.29;43.25;99744.22;4829127;29;20524;-83
2023/07/05 11:44:38;;;;;;;6.88;3.40;;;;;;;22.27;43.46;99716.53;4877083;28;20067;-84
2023/07/05 11:47:26;;;;;;;7.78;3.45;;;;;;;22.35;42.88;99738.97;4900938;29;20058;-84
2023/07/05 11:50:09;;;;;;;10.25;4.05;;;;;;;22.39;43.03;99757.28;4872202;29;20056;-84
2023/07/05 11:52:38;;;;;;;10.40;3.50;;;;;;;22.42;42.85;99743.31;4888111;28;20044;-84
2023/07/05 11:55:26;;;;;;;9.10;3.03;;;;;;;22.39;42.37;99727.53;4896798;29;20062;-85
2023/07/05 11:58:19;;;;;;;4.57;2.63;;;;;;;22.44;41.90;99743.94;4899609;29;20052;-85
2023/07/05 12:00:49;;;;;;;6.07;3.17;;;;;;;22.52;41.53;99745.56;4912700;29;20052;-83
2023/07/05 12:03:21;;;;;;;6.55;3.20;;;;;;;22.53;42.24;99750.75;4906029;29;20052;-85
2023/07/05 12:05:59;;;;;;;7.53;3.22;;;;;;;22.51;40.85;99747.41;4918742;28;20059;-84